sensor_id;sensor_type;location;lat;lon;timestamp;pressure;altitude;pressure_sealevel;temperature;humidity
6389;BME280;3227;42.654;23.360;2023-04-08T00:01:09;94497.19;;;8.32;61.45
6389;BME280;3227;42.654;23.360;2023-04-08T00:03:36;94492.91;;;8.28;61.56
6389;BME280;3227;42.654;23.360;2023-04-08T00:06:03;94501.41;;;8.27;61.63
6389;BME280;3227;42.654;23.360;2023-04-08T00:08:31;94495.41;;;8.25;61.56
6389;BME280;3227;42.654;23.360;2023-04-08T00:10:58;94497.16;;;8.28;61.35
6389;BME280;3227;42.654;23.360;2023-04-08T00:13:25;94451.78;;;7.95;61.58
6389;BME280;3227;42.654;23.360;2023-04-08T00:15:52;94502.22;;;8.23;61.80
6389;BME280;3227;42.654;23.360;2023-04-08T00:18:18;94497.97;;;8.25;61.60
6389;BME280;3227;42.654;23.360;2023-04-08T00:20:45;94504.78;;;8.26;61.30
6389;BME280;3227;42.654;23.360;2023-04-08T00:23:12;94493.78;;;8.30;61.19
6389;BME280;3227;42.654;23.360;2023-04-08T00:25:40;94506.50;;;8.27;61.39
6389;BME280;3227;42.654;23.360;2023-04-08T00:28:13;94438.16;;;7.90;61.30
6389;BME280;3227;42.654;23.360;2023-04-08T00:30:39;94495.44;;;8.28;61.32
6389;BME280;3227;42.654;23.360;2023-04-08T00:33:06;94495.53;;;8.34;61.40
6389;BME280;3227;42.654;23.360;2023-04-08T00:35:34;94503.25;;;8.44;61.21
6389;BME280;3227;42.654;23.360;2023-04-08T00:38:01;94500.69;;;8.39;60.66
6389;BME280;3227;42.654;23.360;2023-04-08T00:40:28;94496.34;;;8.32;61.05
6389;BME280;3227;42.654;23.360;2023-04-08T00:42:57;94503.06;;;8.22;61.72
6389;BME280;3227;42.654;23.360;2023-04-08T00:45:24;94498.69;;;8.09;62.05
6389;BME280;3227;42.654;23.360;2023-04-08T00:47:50;94504.66;;;8.11;62.29
6389;BME280;3227;42.654;23.360;2023-04-08T00:50:18;94506.38;;;8.12;62.10
6389;BME280;3227;42.654;23.360;2023-04-08T00:52:45;94507.25;;;8.17;62.51
6389;BME280;3227;42.654;23.360;2023-04-08T00:55:12;94514.00;;;8.06;62.56
6389;BME280;3227;42.654;23.360;2023-04-08T00:57:39;94513.16;;;8.10;62.40
6389;BME280;3227;42.654;23.360;2023-04-08T01:00:08;94514.91;;;8.14;62.26
6389;BME280;3227;42.654;23.360;2023-04-08T01:02:42;94506.41;;;8.14;62.34
6389;BME280;3227;42.654;23.360;2023-04-08T01:05:14;94502.91;;;8.07;62.52
6389;BME280;3227;42.654;23.360;2023-04-08T01:07:47;94508.00;;;8.07;62.52
6389;BME280;3227;42.654;23.360;2023-04-08T01:10:16;94513.09;;;8.04;62.67
6389;BME280;3227;42.654;23.360;2023-04-08T01:12:49;94505.38;;;7.95;63.56
6389;BME280;3227;42.654;23.360;2023-04-08T01:15:19;94497.66;;;7.89;63.33
6389;BME280;3227;42.654;23.360;2023-04-08T01:17:49;94507.88;;;7.92;63.88
6389;BME280;3227;42.654;23.360;2023-04-08T01:20:19;94513.88;;;7.95;63.50
6389;BME280;3227;42.654;23.360;2023-04-08T01:22:57;94507.06;;;7.94;63.96
6389;BME280;3227;42.654;23.360;2023-04-08T01:25:31;94508.72;;;7.91;64.05
6389;BME280;3227;42.654;23.360;2023-04-08T01:28:00;94512.06;;;7.84;63.95
6389;BME280;3227;42.654;23.360;2023-04-08T01:30:29;94507.78;;;7.80;64.06
6389;BME280;3227;42.654;23.360;2023-04-08T01:32:58;94504.38;;;7.81;64.22
6389;BME280;3227;42.654;23.360;2023-04-08T01:35:27;94503.56;;;7.82;64.72
6389;BME280;3227;42.654;23.360;2023-04-08T01:37:56;94513.75;;;7.83;64.48
6389;BME280;3227;42.654;23.360;2023-04-08T01:40:24;94509.53;;;7.87;64.17
6389;BME280;3227;42.654;23.360;2023-04-08T01:42:53;94511.25;;;7.88;63.72
6389;BME280;3227;42.654;23.360;2023-04-08T01:45:23;94512.97;;;7.89;63.43
6389;BME280;3227;42.654;23.360;2023-04-08T01:47:51;94514.66;;;7.91;63.13
6389;BME280;3227;42.654;23.360;2023-04-08T01:50:18;94469.38;;;7.68;62.65
6389;BME280;3227;42.654;23.360;2023-04-08T01:52:47;94516.44;;;7.95;62.60
6389;BME280;3227;42.654;23.360;2023-04-08T01:55:15;94506.19;;;7.94;62.10
6389;BME280;3227;42.654;23.360;2023-04-08T01:57:44;94512.28;;;8.07;62.12
6389;BME280;3227;42.654;23.360;2023-04-08T02:00:15;94522.47;;;8.08;61.96
6389;BME280;3227;42.654;23.360;2023-04-08T02:02:46;94520.78;;;8.07;62.15
6389;BME280;3227;42.654;23.360;2023-04-08T02:05:13;94523.34;;;8.09;62.24
6389;BME280;3227;42.654;23.360;2023-04-08T02:07:40;94531.84;;;8.06;62.48
6389;BME280;3227;42.654;23.360;2023-04-08T02:10:07;94513.91;;;7.98;62.37
6389;BME280;3227;42.654;23.360;2023-04-08T02:12:34;94532.63;;;8.00;62.25
6389;BME280;3227;42.654;23.360;2023-04-08T02:15:01;94532.63;;;8.00;62.95
6389;BME280;3227;42.654;23.360;2023-04-08T02:17:34;94477.03;;;7.68;62.57
6389;BME280;3227;42.654;23.360;2023-04-08T02:20:08;94532.59;;;7.99;61.98
6389;BME280;3227;42.654;23.360;2023-04-08T02:22:40;94537.66;;;7.93;62.44
6389;BME280;3227;42.654;23.360;2023-04-08T02:25:12;94541.00;;;7.87;61.98
6389;BME280;3227;42.654;23.360;2023-04-08T02:27:39;94540.06;;;7.79;62.38
6389;BME280;3227;42.654;23.360;2023-04-08T02:30:08;94536.66;;;7.77;62.42
6389;BME280;3227;42.654;23.360;2023-04-08T02:32:36;94534.19;;;7.86;60.92
6389;BME280;3227;42.654;23.360;2023-04-08T02:35:06;94535.88;;;7.86;61.03
6389;BME280;3227;42.654;23.360;2023-04-08T02:37:35;94539.19;;;7.77;61.12
6389;BME280;3227;42.654;23.360;2023-04-08T02:40:03;94533.25;;;7.77;61.22
6389;BME280;3227;42.654;23.360;2023-04-08T02:42:30;94534.91;;;7.72;61.40
6389;BME280;3227;42.654;23.360;2023-04-08T02:44:56;94533.88;;;7.59;61.93
6389;BME280;3227;42.654;23.360;2023-04-08T02:47:23;94533.91;;;7.60;61.80
6389;BME280;3227;42.654;23.360;2023-04-08T02:49:50;94535.59;;;7.58;62.23
6389;BME280;3227;42.654;23.360;2023-04-08T02:52:19;94530.50;;;7.60;62.38
6389;BME280;3227;42.654;23.360;2023-04-08T02:54:46;94533.13;;;7.64;62.24
6389;BME280;3227;42.654;23.360;2023-04-08T02:57:13;94529.72;;;7.64;62.15
6389;BME280;3227;42.654;23.360;2023-04-08T02:59:41;94538.25;;;7.68;61.59
6389;BME280;3227;42.654;23.360;2023-04-08T03:02:08;94536.63;;;7.73;61.88
6389;BME280;3227;42.654;23.360;2023-04-08T03:04:34;94543.50;;;7.80;61.93
6389;BME280;3227;42.654;23.360;2023-04-08T03:07:01;94544.41;;;7.86;61.36
6389;BME280;3227;42.654;23.360;2023-04-08T03:09:29;94533.38;;;7.92;61.01
6389;BME280;3227;42.654;23.360;2023-04-08T03:11:56;94536.00;;;7.99;61.17
6389;BME280;3227;42.654;23.360;2023-04-08T03:14:23;94536.88;;;7.98;61.03
6389;BME280;3227;42.654;23.360;2023-04-08T03:16:50;94538.59;;;8.01;60.81
6389;BME280;3227;42.654;23.360;2023-04-08T03:19:16;94534.31;;;8.00;60.56
6389;BME280;3227;42.654;23.360;2023-04-08T03:21:43;94533.53;;;8.04;60.49
6389;BME280;3227;42.654;23.360;2023-04-08T03:24:10;94536.03;;;8.01;60.25
6389;BME280;3227;42.654;23.360;2023-04-08T03:26:38;94536.81;;;7.94;60.46
6389;BME280;3227;42.654;23.360;2023-04-08T03:29:05;94530.00;;;7.90;60.94
6389;BME280;3227;42.654;23.360;2023-04-08T03:31:32;94539.31;;;7.91;61.36
6389;BME280;3227;42.654;23.360;2023-04-08T03:33:59;94540.19;;;7.90;61.48
6389;BME280;3227;42.654;23.360;2023-04-08T03:36:25;94540.19;;;7.88;61.71
6389;BME280;3227;42.654;23.360;2023-04-08T03:38:52;94543.59;;;7.89;62.14
6389;BME280;3227;42.654;23.360;2023-04-08T03:41:19;94534.13;;;7.80;62.71
6389;BME280;3227;42.654;23.360;2023-04-08T03:43:47;94540.06;;;7.78;62.62
6389;BME280;3227;42.654;23.360;2023-04-08T03:46:14;94540.06;;;7.78;62.80
6389;BME280;3227;42.654;23.360;2023-04-08T03:48:41;94543.50;;;7.80;62.07
6389;BME280;3227;42.654;23.360;2023-04-08T03:51:08;94546.16;;;7.90;62.45
6389;BME280;3227;42.654;23.360;2023-04-08T03:53:35;94546.13;;;7.89;60.92
6389;BME280;3227;42.654;23.360;2023-04-08T03:56:01;94540.94;;;7.80;61.30
6389;BME280;3227;42.654;23.360;2023-04-08T03:58:28;94539.16;;;7.74;61.90
6389;BME280;3227;42.654;23.360;2023-04-08T04:00:57;94533.25;;;7.77;61.78
6389;BME280;3227;42.654;23.360;2023-04-08T04:03:24;94540.09;;;7.81;61.78
6389;BME280;3227;42.654;23.360;2023-04-08T04:05:51;94541.81;;;7.83;61.45
6389;BME280;3227;42.654;23.360;2023-04-08T04:08:18;94531.63;;;7.85;61.16
6389;BME280;3227;42.654;23.360;2023-04-08T04:10:45;94539.25;;;7.83;60.70
6389;BME280;3227;42.654;23.360;2023-04-08T04:13:12;94537.59;;;7.85;61.08
6389;BME280;3227;42.654;23.360;2023-04-08T04:15:39;94530.72;;;7.80;60.89
6389;BME280;3227;42.654;23.360;2023-04-08T04:18:07;94544.41;;;7.88;61.08
6389;BME280;3227;42.654;23.360;2023-04-08T04:20:34;94549.44;;;7.83;61.32
6389;BME280;3227;42.654;23.360;2023-04-08T04:23:02;94547.78;;;7.82;61.67
6389;BME280;3227;42.654;23.360;2023-04-08T04:25:29;94552.88;;;7.85;61.64
6389;BME280;3227;42.654;23.360;2023-04-08T04:27:56;94552.88;;;7.84;61.91
6389;BME280;3227;42.654;23.360;2023-04-08T04:30:23;94526.38;;;7.70;61.74
6389;BME280;3227;42.654;23.360;2023-04-08T04:32:50;94547.78;;;7.85;62.43
6389;BME280;3227;42.654;23.360;2023-04-08T04:35:18;94556.31;;;7.87;62.50
6389;BME280;3227;42.654;23.360;2023-04-08T04:37:45;94558.81;;;7.83;61.96
6389;BME280;3227;42.654;23.360;2023-04-08T04:40:14;94513.31;;;7.44;62.84
6389;BME280;3227;42.654;23.360;2023-04-08T04:42:41;94556.97;;;7.70;62.70
6389;BME280;3227;42.654;23.360;2023-04-08T04:45:09;94550.13;;;7.64;63.43
6389;BME280;3227;42.654;23.360;2023-04-08T04:47:35;94544.94;;;7.56;63.54
6389;BME280;3227;42.654;23.360;2023-04-08T04:50:03;94549.97;;;7.53;63.77
6389;BME280;3227;42.654;23.360;2023-04-08T04:52:31;94543.94;;;7.45;64.37
6389;BME280;3227;42.654;23.360;2023-04-08T04:54:58;94545.63;;;7.45;64.06
6389;BME280;3227;42.654;23.360;2023-04-08T04:57:25;94556.00;;;7.57;64.05
6389;BME280;3227;42.654;23.360;2023-04-08T04:59:52;94557.81;;;7.70;63.84
6389;BME280;3227;42.654;23.360;2023-04-08T05:02:18;94558.81;;;7.81;63.62
6389;BME280;3227;42.654;23.360;2023-04-08T05:04:45;94558.81;;;7.83;63.28
6389;BME280;3227;42.654;23.360;2023-04-08T05:07:12;94560.66;;;7.96;63.13
6389;BME280;3227;42.654;23.360;2023-04-08T05:09:40;94558.13;;;7.97;62.80
6389;BME280;3227;42.654;23.360;2023-04-08T05:12:07;94547.06;;;8.00;62.46
6389;BME280;3227;42.654;23.360;2023-04-08T05:14:34;94488.94;;;7.69;62.41
6389;BME280;3227;42.654;23.360;2023-04-08T05:17:00;94537.78;;;8.03;62.03
6389;BME280;3227;42.654;23.360;2023-04-08T05:19:27;94559.19;;;8.19;61.86
6389;BME280;3227;42.654;23.360;2023-04-08T05:21:54;94553.25;;;8.25;61.94
6389;BME280;3227;42.654;23.360;2023-04-08T05:24:21;94557.53;;;8.26;62.43
6389;BME280;3227;42.654;23.360;2023-04-08T05:26:49;94556.78;;;8.33;62.57
6389;BME280;3227;42.654;23.360;2023-04-08T05:29:17;94545.72;;;8.34;61.59
6389;BME280;3227;42.654;23.360;2023-04-08T05:31:46;94557.75;;;8.49;61.81
6389;BME280;3227;42.654;23.360;2023-04-08T05:34:12;94554.34;;;8.47;61.73
6389;BME280;3227;42.654;23.360;2023-04-08T05:36:40;94561.22;;;8.57;62.13
6389;BME280;3227;42.654;23.360;2023-04-08T05:39:06;94560.50;;;8.73;62.88
6389;BME280;3227;42.654;23.360;2023-04-08T05:41:33;94555.50;;;8.87;61.50
6389;BME280;3227;42.654;23.360;2023-04-08T05:44:01;94554.75;;;9.01;61.39
6389;BME280;3227;42.654;23.360;2023-04-08T05:46:28;94556.50;;;9.14;60.62
6389;BME280;3227;42.654;23.360;2023-04-08T05:48:55;94551.50;;;9.28;59.71
6389;BME280;3227;42.654;23.360;2023-04-08T05:51:22;94554.03;;;9.22;58.94
6389;BME280;3227;42.654;23.360;2023-04-08T05:53:49;94545.41;;;9.09;59.30
6389;BME280;3227;42.654;23.360;2023-04-08T05:56:15;94552.19;;;9.06;59.15
6389;BME280;3227;42.654;23.360;2023-04-08T05:58:42;94555.63;;;9.05;59.16
6389;BME280;3227;42.654;23.360;2023-04-08T06:01:10;94552.91;;;8.84;59.10
6389;BME280;3227;42.654;23.360;2023-04-08T06:03:37;94554.66;;;8.88;59.53
6389;BME280;3227;42.654;23.360;2023-04-08T06:06:08;94552.00;;;8.72;60.07
6389;BME280;3227;42.654;23.360;2023-04-08T06:08:35;94561.09;;;8.42;61.09
6389;BME280;3227;42.654;23.360;2023-04-08T06:11:02;94554.13;;;8.25;62.05
6389;BME280;3227;42.654;23.360;2023-04-08T06:13:29;94560.16;;;8.30;62.01
6389;BME280;3227;42.654;23.360;2023-04-08T06:15:56;94552.53;;;8.33;61.93
6389;BME280;3227;42.654;23.360;2023-04-08T06:18:25;94549.00;;;8.24;62.46
6389;BME280;3227;42.654;23.360;2023-04-08T06:20:52;94547.28;;;8.20;63.09
6389;BME280;3227;42.654;23.360;2023-04-08T06:23:18;94551.47;;;8.16;63.33
6389;BME280;3227;42.654;23.360;2023-04-08T06:25:45;94556.53;;;8.10;64.40
6389;BME280;3227;42.654;23.360;2023-04-08T06:28:12;94554.25;;;8.36;63.72
6389;BME280;3227;42.654;23.360;2023-04-08T06:30:39;94429.41;;;7.63;64.42
6389;BME280;3227;42.654;23.360;2023-04-08T06:33:06;94561.19;;;8.51;64.02
6389;BME280;3227;42.654;23.360;2023-04-08T06:35:34;94547.75;;;8.74;63.75
6389;BME280;3227;42.654;23.360;2023-04-08T06:38:01;94553.84;;;8.95;63.55
6389;BME280;3227;42.654;23.360;2023-04-08T06:40:28;94552.97;;;8.93;63.50
6389;BME280;3227;42.654;23.360;2023-04-08T06:42:55;94558.16;;;9.03;63.49
6389;BME280;3227;42.654;23.360;2023-04-08T06:45:22;94556.56;;;9.19;62.94
6389;BME280;3227;42.654;23.360;2023-04-08T06:47:48;94559.88;;;9.07;63.38
6389;BME280;3227;42.654;23.360;2023-04-08T06:50:15;94560.75;;;9.11;63.34
6389;BME280;3227;42.654;23.360;2023-04-08T06:52:43;94556.44;;;8.99;63.58
6389;BME280;3227;42.654;23.360;2023-04-08T06:55:10;94561.50;;;8.89;64.23
6389;BME280;3227;42.654;23.360;2023-04-08T06:57:37;94553.00;;;8.94;63.99
6389;BME280;3227;42.654;23.360;2023-04-08T07:00:05;94564.16;;;9.05;63.72
6389;BME280;3227;42.654;23.360;2023-04-08T07:02:32;94559.06;;;9.11;63.99
6389;BME280;3227;42.654;23.360;2023-04-08T07:04:59;94473.66;;;8.73;63.16
6389;BME280;3227;42.654;23.360;2023-04-08T07:07:25;94560.00;;;9.27;63.18
6389;BME280;3227;42.654;23.360;2023-04-08T07:09:54;94556.56;;;9.25;63.79
6389;BME280;3227;42.654;23.360;2023-04-08T07:12:20;94563.34;;;9.15;64.49
6389;BME280;3227;42.654;23.360;2023-04-08T07:14:47;94566.66;;;8.99;64.47
6389;BME280;3227;42.654;23.360;2023-04-08T07:17:14;94565.03;;;9.10;64.25
6389;BME280;3227;42.654;23.360;2023-04-08T07:19:41;94565.81;;;8.97;63.19
6389;BME280;3227;42.654;23.360;2023-04-08T07:22:08;94549.66;;;9.04;63.13
6389;BME280;3227;42.654;23.360;2023-04-08T07:24:35;94567.75;;;9.44;62.52
6389;BME280;3227;42.654;23.360;2023-04-08T07:27:03;94573.78;;;9.53;62.36
6389;BME280;3227;42.654;23.360;2023-04-08T07:29:30;94570.41;;;9.65;62.87
6389;BME280;3227;42.654;23.360;2023-04-08T07:31:57;94534.50;;;9.42;62.34
6389;BME280;3227;42.654;23.360;2023-04-08T07:34:24;94527.69;;;9.49;63.07
6389;BME280;3227;42.654;23.360;2023-04-08T07:36:50;94577.28;;;9.81;62.42
6389;BME280;3227;42.654;23.360;2023-04-08T07:39:17;94570.41;;;9.68;63.84
6389;BME280;3227;42.654;23.360;2023-04-08T07:41:44;94584.16;;;9.98;62.49
6389;BME280;3227;42.654;23.360;2023-04-08T07:44:12;94575.69;;;10.11;61.83
6389;BME280;3227;42.654;23.360;2023-04-08T07:46:41;94567.13;;;10.15;61.12
6389;BME280;3227;42.654;23.360;2023-04-08T07:49:10;94583.31;;;9.97;61.24
6389;BME280;3227;42.654;23.360;2023-04-08T07:51:36;94584.22;;;10.16;61.68
6389;BME280;3227;42.654;23.360;2023-04-08T07:54:03;94581.69;;;10.22;60.43
6389;BME280;3227;42.654;23.360;2023-04-08T07:56:30;94587.69;;;10.30;60.59
6389;BME280;3227;42.654;23.360;2023-04-08T07:58:57;94590.16;;;10.13;61.27
6389;BME280;3227;42.654;23.360;2023-04-08T08:01:25;94594.44;;;10.02;62.49
6389;BME280;3227;42.654;23.360;2023-04-08T08:03:55;94596.09;;;9.86;62.69
6389;BME280;3227;42.654;23.360;2023-04-08T08:06:22;94597.81;;;9.97;61.93
6389;BME280;3227;42.654;23.360;2023-04-08T08:08:54;94592.81;;;10.21;61.42
6389;BME280;3227;42.654;23.360;2023-04-08T08:11:21;94598.81;;;10.72;60.32
6389;BME280;3227;42.654;23.360;2023-04-08T08:13:47;94603.09;;;11.09;59.08
6389;BME280;3227;42.654;23.360;2023-04-08T08:16:14;94600.47;;;11.52;57.19
6389;BME280;3227;42.654;23.360;2023-04-08T08:18:42;94601.22;;;11.87;54.69
6389;BME280;3227;42.654;23.360;2023-04-08T08:21:09;94591.81;;;11.91;54.35
6389;BME280;3227;42.654;23.360;2023-04-08T08:23:36;94601.13;;;12.07;54.86
6389;BME280;3227;42.654;23.360;2023-04-08T08:26:05;94600.34;;;11.93;54.43
6389;BME280;3227;42.654;23.360;2023-04-08T08:28:32;94606.25;;;12.11;55.13
6389;BME280;3227;42.654;23.360;2023-04-08T08:30:59;94593.56;;;11.66;56.72
6389;BME280;3227;42.654;23.360;2023-04-08T08:33:26;94603.84;;;11.57;56.91
6389;BME280;3227;42.654;23.360;2023-04-08T08:35:54;94603.03;;;11.45;56.95
6389;BME280;3227;42.654;23.360;2023-04-08T08:38:22;94606.47;;;11.44;57.87
6389;BME280;3227;42.654;23.360;2023-04-08T08:40:53;94609.06;;;11.25;58.29
6389;BME280;3227;42.654;23.360;2023-04-08T08:43:20;94602.22;;;11.36;59.16
6389;BME280;3227;42.654;23.360;2023-04-08T08:45:47;94609.09;;;10.88;59.87
6389;BME280;3227;42.654;23.360;2023-04-08T08:48:14;94604.81;;;10.67;60.94
6389;BME280;3227;42.654;23.360;2023-04-08T08:50:41;94597.09;;;10.42;62.32
6389;BME280;3227;42.654;23.360;2023-04-08T08:53:12;94607.38;;;10.51;62.01
6389;BME280;3227;42.654;23.360;2023-04-08T08:55:39;94615.09;;;10.86;60.62
6389;BME280;3227;42.654;23.360;2023-04-08T08:58:06;94561.25;;;10.61;60.60
6389;BME280;3227;42.654;23.360;2023-04-08T09:00:34;94611.63;;;11.05;59.95
6389;BME280;3227;42.654;23.360;2023-04-08T09:03:14;94607.38;;;10.89;62.21
6389;BME280;3227;42.654;23.360;2023-04-08T09:05:48;94625.31;;;10.75;62.45
6389;BME280;3227;42.654;23.360;2023-04-08T09:08:28;94560.38;;;10.35;62.41
6389;BME280;3227;42.654;23.360;2023-04-08T09:10:55;94579.16;;;10.46;62.72
6389;BME280;3227;42.654;23.360;2023-04-08T09:13:35;94615.91;;;10.60;63.74
6389;BME280;3227;42.654;23.360;2023-04-08T09:16:04;94615.94;;;10.76;63.56
6389;BME280;3227;42.654;23.360;2023-04-08T09:18:32;94624.47;;;10.82;61.75
6389;BME280;3227;42.654;23.360;2023-04-08T09:20:59;94558.69;;;10.64;61.74
6389;BME280;3227;42.654;23.360;2023-04-08T09:23:42;94609.06;;;11.20;60.02
6389;BME280;3227;42.654;23.360;2023-04-08T09:26:10;94602.19;;;11.50;59.91
6389;BME280;3227;42.654;23.360;2023-04-08T09:28:39;94609.84;;;11.77;59.57
6389;BME280;3227;42.654;23.360;2023-04-08T09:31:18;94584.16;;;11.68;58.05
6389;BME280;3227;42.654;23.360;2023-04-08T09:33:46;94604.63;;;11.86;59.04
6389;BME280;3227;42.654;23.360;2023-04-08T09:36:13;94604.72;;;11.56;60.09
6389;BME280;3227;42.654;23.360;2023-04-08T09:38:42;94599.69;;;11.10;61.26
6389;BME280;3227;42.654;23.360;2023-04-08T09:41:12;94568.91;;;10.98;61.48
6389;BME280;3227;42.654;23.360;2023-04-08T09:43:41;94596.22;;;11.35;61.05
6389;BME280;3227;42.654;23.360;2023-04-08T09:46:14;94591.09;;;11.43;59.62
6389;BME280;3227;42.654;23.360;2023-04-08T09:48:47;94594.44;;;11.68;59.41
6389;BME280;3227;42.654;23.360;2023-04-08T09:51:18;94590.19;;;11.56;58.34
6389;BME280;3227;42.654;23.360;2023-04-08T09:53:52;94591.91;;;11.53;59.01
6389;BME280;3227;42.654;23.360;2023-04-08T09:56:21;94548.38;;;11.04;60.54
6389;BME280;3227;42.654;23.360;2023-04-08T09:58:51;94577.34;;;11.56;60.12
6389;BME280;3227;42.654;23.360;2023-04-08T10:01:25;94575.63;;;11.58;59.17
6389;BME280;3227;42.654;23.360;2023-04-08T10:03:54;94574.84;;;11.32;59.94
6389;BME280;3227;42.654;23.360;2023-04-08T10:06:27;94563.81;;;10.95;61.20
6389;BME280;3227;42.654;23.360;2023-04-08T10:08:57;94567.19;;;10.95;61.22
6389;BME280;3227;42.654;23.360;2023-04-08T10:11:25;94573.13;;;11.32;60.28
6389;BME280;3227;42.654;23.360;2023-04-08T10:13:52;94570.56;;;11.43;59.15
6389;BME280;3227;42.654;23.360;2023-04-08T10:16:23;94569.69;;;11.52;59.28
6389;BME280;3227;42.654;23.360;2023-04-08T10:18:51;94570.56;;;11.41;59.67
6389;BME280;3227;42.654;23.360;2023-04-08T10:21:34;94557.81;;;11.00;60.55
6389;BME280;3227;42.654;23.360;2023-04-08T10:24:05;94572.34;;;10.76;60.74
6389;BME280;3227;42.654;23.360;2023-04-08T10:26:37;94531.34;;;10.48;60.78
6389;BME280;3227;42.654;23.360;2023-04-08T10:29:32;94566.38;;;10.52;62.08
6389;BME280;3227;42.654;23.360;2023-04-08T10:31:59;94572.38;;;10.60;61.71
6389;BME280;3227;42.654;23.360;2023-04-08T10:34:27;94528.78;;;10.39;61.59
6389;BME280;3227;42.654;23.360;2023-04-08T10:36:55;94568.09;;;10.84;60.99
6389;BME280;3227;42.654;23.360;2023-04-08T10:39:25;94552.69;;;10.97;60.90
6389;BME280;3227;42.654;23.360;2023-04-08T10:41:53;94568.09;;;11.03;60.07
6389;BME280;3227;42.654;23.360;2023-04-08T10:44:21;94571.44;;;11.22;60.00
6389;BME280;3227;42.654;23.360;2023-04-08T10:46:49;94549.13;;;11.55;58.47
6389;BME280;3227;42.654;23.360;2023-04-08T10:49:16;94558.47;;;11.71;57.83
6389;BME280;3227;42.654;23.360;2023-04-08T10:51:44;94504.75;;;11.25;58.36
6389;BME280;3227;42.654;23.360;2023-04-08T10:54:12;94545.72;;;11.50;58.91
6389;BME280;3227;42.654;23.360;2023-04-08T10:56:44;94539.75;;;11.46;58.55
6389;BME280;3227;42.654;23.360;2023-04-08T10:59:12;94479.09;;;11.21;58.70
6389;BME280;3227;42.654;23.360;2023-04-08T11:01:42;94539.69;;;11.63;58.25
6389;BME280;3227;42.654;23.360;2023-04-08T11:04:16;94544.75;;;11.86;57.66
6389;BME280;3227;42.654;23.360;2023-04-08T11:06:45;94539.66;;;11.75;56.40
6389;BME280;3227;42.654;23.360;2023-04-08T11:09:13;94540.53;;;11.66;56.66
6389;BME280;3227;42.654;23.360;2023-04-08T11:11:41;94543.06;;;11.71;55.27
6389;BME280;3227;42.654;23.360;2023-04-08T11:14:09;94522.53;;;11.83;55.77
6389;BME280;3227;42.654;23.360;2023-04-08T11:16:37;94525.69;;;12.26;54.15
6389;BME280;3227;42.654;23.360;2023-04-08T11:19:06;94539.19;;;12.54;52.25
6389;BME280;3227;42.654;23.360;2023-04-08T11:21:34;94522.91;;;12.53;51.91
6389;BME280;3227;42.654;23.360;2023-04-08T11:24:05;94533.97;;;12.66;51.79
6389;BME280;3227;42.654;23.360;2023-04-08T11:26:34;94519.25;;;12.80;52.05
6389;BME280;3227;42.654;23.360;2023-04-08T11:29:02;94516.81;;;12.65;51.99
6389;BME280;3227;42.654;23.360;2023-04-08T11:31:32;94506.81;;;12.29;52.30
6389;BME280;3227;42.654;23.360;2023-04-08T11:33:59;94527.38;;;12.29;53.51
6389;BME280;3227;42.654;23.360;2023-04-08T11:36:28;94511.94;;;12.35;53.85
6389;BME280;3227;42.654;23.360;2023-04-08T11:38:55;94523.69;;;12.66;51.79
6389;BME280;3227;42.654;23.360;2023-04-08T11:41:21;94502.06;;;12.87;49.86
6389;BME280;3227;42.654;23.360;2023-04-08T11:43:53;94494.19;;;13.04;50.33
6389;BME280;3227;42.654;23.360;2023-04-08T11:46:21;94503.47;;;13.21;49.46
6389;BME280;3227;42.654;23.360;2023-04-08T11:49:03;94502.56;;;13.25;47.62
6389;BME280;3227;42.654;23.360;2023-04-08T11:51:31;94509.44;;;13.25;48.09
6389;BME280;3227;42.654;23.360;2023-04-08T11:53:58;94468.59;;;12.91;49.08
6389;BME280;3227;42.654;23.360;2023-04-08T11:56:26;94504.53;;;12.96;48.86
6389;BME280;3227;42.654;23.360;2023-04-08T11:58:55;94491.00;;;12.77;50.14
6389;BME280;3227;42.654;23.360;2023-04-08T12:01:21;94496.13;;;12.80;51.07
6389;BME280;3227;42.654;23.360;2023-04-08T12:03:58;94490.13;;;12.80;50.74
6389;BME280;3227;42.654;23.360;2023-04-08T12:06:27;94495.16;;;12.92;51.64
6389;BME280;3227;42.654;23.360;2023-04-08T12:08:55;94395.94;;;12.71;50.46
6389;BME280;3227;42.654;23.360;2023-04-08T12:11:22;94471.59;;;13.33;49.84
6389;BME280;3227;42.654;23.360;2023-04-08T12:14:24;94469.69;;;13.49;50.28
6389;BME280;3227;42.654;23.360;2023-04-08T12:16:51;94494.50;;;13.54;49.25
6389;BME280;3227;42.654;23.360;2023-04-08T12:19:18;94472.47;;;13.32;49.17
6389;BME280;3227;42.654;23.360;2023-04-08T12:21:46;94498.31;;;13.20;47.56
6389;BME280;3227;42.654;23.360;2023-04-08T12:24:13;94500.25;;;12.95;48.40
6389;BME280;3227;42.654;23.360;2023-04-08T12:26:40;94479.03;;;12.76;48.76
6389;BME280;3227;42.654;23.360;2023-04-08T12:29:07;94473.75;;;12.88;47.89
6389;BME280;3227;42.654;23.360;2023-04-08T12:31:36;94465.09;;;12.99;50.01
6389;BME280;3227;42.654;23.360;2023-04-08T12:34:03;94484.88;;;12.90;49.22
6389;BME280;3227;42.654;23.360;2023-04-08T12:36:31;94486.75;;;12.75;49.72
6389;BME280;3227;42.654;23.360;2023-04-08T12:38:59;94468.13;;;12.51;49.75
6389;BME280;3227;42.654;23.360;2023-04-08T12:41:26;94466.28;;;12.64;50.51
6389;BME280;3227;42.654;23.360;2023-04-08T12:43:52;94451.63;;;12.72;50.88
6389;BME280;3227;42.654;23.360;2023-04-08T12:46:19;94460.97;;;12.81;50.50
6389;BME280;3227;42.654;23.360;2023-04-08T12:48:47;94471.47;;;12.58;52.88
6389;BME280;3227;42.654;23.360;2023-04-08T12:51:13;94467.41;;;12.33;53.54
6389;BME280;3227;42.654;23.360;2023-04-08T12:53:40;94467.53;;;12.17;54.86
6389;BME280;3227;42.654;23.360;2023-04-08T12:56:08;94461.47;;;12.26;54.75
6389;BME280;3227;42.654;23.360;2023-04-08T12:58:35;94454.63;;;12.25;53.76
6389;BME280;3227;42.654;23.360;2023-04-08T13:01:02;94459.69;;;12.34;55.35
6389;BME280;3227;42.654;23.360;2023-04-08T13:03:29;94441.66;;;12.36;55.44
6389;BME280;3227;42.654;23.360;2023-04-08T13:05:56;94443.31;;;12.44;55.18
6389;BME280;3227;42.654;23.360;2023-04-08T13:08:23;94423.59;;;12.48;55.26
6389;BME280;3227;42.654;23.360;2023-04-08T13:10:50;94448.28;;;12.63;54.58
6389;BME280;3227;42.654;23.360;2023-04-08T13:13:18;94450.94;;;12.56;53.62
6389;BME280;3227;42.654;23.360;2023-04-08T13:15:45;94438.16;;;12.49;54.83
6389;BME280;3227;42.654;23.360;2023-04-08T13:18:12;94453.38;;;12.69;54.95
6389;BME280;3227;42.654;23.360;2023-04-08T13:20:39;94448.13;;;12.78;52.95
6389;BME280;3227;42.654;23.360;2023-04-08T13:23:05;94453.25;;;12.82;51.99